createdAt,value
2023-08-22T00:00:05.180Z,58.50
2023-08-22T00:02:39.450Z,58.50
2023-08-22T00:05:06.735Z,58.40
2023-08-22T00:07:43.731Z,58.50
2023-08-22T00:10:11.318Z,58.60
2023-08-22T00:12:38.563Z,58.60
2023-08-22T00:15:14.247Z,58.60
2023-08-22T00:17:42.084Z,59.20
2023-08-22T00:20:09.669Z,58.70
2023-08-22T00:22:39.562Z,58.70
2023-08-22T00:25:07.053Z,58.90
2023-08-22T00:27:40.401Z,58.90
2023-08-22T00:30:11.157Z,59.20
2023-08-22T00:32:40.684Z,59.10
2023-08-22T00:35:07.644Z,59.10
2023-08-22T00:37:37.234Z,59.10
2023-08-22T00:40:04.882Z,59.10
2023-08-22T00:42:34.033Z,59.10
2023-08-22T00:45:03.584Z,59.10
2023-08-22T00:47:30.341Z,59.10
2023-08-22T00:49:57.008Z,59.20
2023-08-22T00:52:23.842Z,59.20
2023-08-22T00:55:04.823Z,59.40
2023-08-22T00:57:31.504Z,58.80
2023-08-22T01:00:07.647Z,58.80
2023-08-22T01:02:38.145Z,59.30
2023-08-22T01:05:05.205Z,59.10
2023-08-22T01:07:38.459Z,59.20
2023-08-22T01:10:13.038Z,59.60
2023-08-22T01:12:48.582Z,59.50
2023-08-22T01:15:31.309Z,59.70
2023-08-22T01:17:59.311Z,60.30
2023-08-22T01:20:28.638Z,59.70
2023-08-22T01:22:55.836Z,59.60
2023-08-22T01:25:22.853Z,59.60
2023-08-22T01:28:28.180Z,59.70
2023-08-22T01:31:32.530Z,60.10
2023-08-22T01:34:10.510Z,60.10
2023-08-22T01:36:41.371Z,59.90
2023-08-22T01:39:09.297Z,59.70
2023-08-22T01:41:38.462Z,59.90
2023-08-22T01:44:06.170Z,60.00
2023-08-22T01:46:32.898Z,60.00
2023-08-22T01:49:00.941Z,60.20
2023-08-22T01:51:28.873Z,60.20
2023-08-22T01:53:55.605Z,60.30
2023-08-22T01:56:22.964Z,60.30
2023-08-22T01:58:49.752Z,60.20
2023-08-22T02:01:16.595Z,60.30
2023-08-22T02:03:47.243Z,60.30
2023-08-22T02:06:16.417Z,60.40
2023-08-22T02:08:43.246Z,60.40
2023-08-22T02:11:12.870Z,60.50
2023-08-22T02:13:53.036Z,60.60
2023-08-22T02:16:20.241Z,60.50
2023-08-22T02:18:47.005Z,60.50
2023-08-22T02:21:13.674Z,60.60
2023-08-22T02:23:43.629Z,60.60
2023-08-22T02:26:11.568Z,60.70
2023-08-22T02:28:39.796Z,61.00
2023-08-22T02:31:07.242Z,61.10
2023-08-22T02:33:33.994Z,61.00
2023-08-22T02:36:03.961Z,61.10
2023-08-22T02:38:35.936Z,61.10
2023-08-22T02:41:03.840Z,60.60
2023-08-22T02:43:31.524Z,60.70
2023-08-22T02:46:00.457Z,60.90
2023-08-22T02:48:33.444Z,61.10
2023-08-22T02:51:00.704Z,61.20
2023-08-22T02:53:27.734Z,60.90
2023-08-22T02:55:54.761Z,61.10
2023-08-22T02:58:21.449Z,61.20
2023-08-22T03:00:48.195Z,61.10
2023-08-22T03:03:15.715Z,61.20
2023-08-22T03:05:45.636Z,61.20
2023-08-22T03:08:12.840Z,61.40
2023-08-22T03:10:41.647Z,61.30
2023-08-22T03:13:14.478Z,61.30
2023-08-22T03:15:44.882Z,61.60
2023-08-22T03:18:11.599Z,61.30
2023-08-22T03:20:38.280Z,61.50
2023-08-22T03:23:07.341Z,61.60
2023-08-22T03:25:34.195Z,62.00
2023-08-22T03:28:03.796Z,62.20
2023-08-22T03:30:30.659Z,62.10
2023-08-22T03:33:05.272Z,62.00
2023-08-22T03:35:33.138Z,61.90
2023-08-22T03:37:59.873Z,61.80
2023-08-22T03:40:33.902Z,61.80
2023-08-22T03:43:00.706Z,61.90
2023-08-22T03:45:32.142Z,61.80
2023-08-22T03:48:04.869Z,61.70
2023-08-22T03:50:32.730Z,61.80
2023-08-22T03:53:02.062Z,61.60
2023-08-22T03:55:30.340Z,61.60
2023-08-22T03:58:01.602Z,61.80
2023-08-22T04:00:28.786Z,61.70
2023-08-22T04:02:59.654Z,61.80
2023-08-22T04:05:27.258Z,62.10
2023-08-22T04:07:54.054Z,61.80
2023-08-22T04:10:21.970Z,61.80
2023-08-22T04:12:48.600Z,61.80
2023-08-22T04:15:20.066Z,61.80
2023-08-22T04:17:48.400Z,61.80
2023-08-22T04:20:17.523Z,61.90
2023-08-22T04:22:44.692Z,61.90
2023-08-22T04:25:14.424Z,62.00
2023-08-22T04:27:46.773Z,62.00
2023-08-22T04:30:14.800Z,62.10
2023-08-22T04:32:41.721Z,62.00
2023-08-22T04:35:09.154Z,62.00
2023-08-22T04:37:39.485Z,62.10
2023-08-22T04:40:10.501Z,62.10
2023-08-22T04:42:41.683Z,62.40
2023-08-22T04:45:10.657Z,62.20
2023-08-22T04:47:37.447Z,62.30
2023-08-22T04:50:05.993Z,62.40
2023-08-22T04:52:32.684Z,62.40
2023-08-22T04:54:59.366Z,62.50
2023-08-22T04:57:25.975Z,62.70
2023-08-22T04:59:54.744Z,62.80
2023-08-22T05:02:25.911Z,63.00
2023-08-22T05:04:53.097Z,63.00
2023-08-22T05:07:20.060Z,63.10
2023-08-22T05:09:47.035Z,63.20
2023-08-22T05:12:14.577Z,63.50
2023-08-22T05:14:42.793Z,63.60
2023-08-22T05:17:09.756Z,63.80
2023-08-22T05:19:38.763Z,64.00
2023-08-22T05:22:05.456Z,64.20
2023-08-22T05:24:32.352Z,64.30
2023-08-22T05:26:59.082Z,64.40
2023-08-22T05:29:25.781Z,64.60
2023-08-22T05:31:52.493Z,64.70
2023-08-22T05:34:19.180Z,64.70
2023-08-22T05:36:46.162Z,64.70
2023-08-22T05:39:13.426Z,64.70
2023-08-22T05:41:40.063Z,64.70
2023-08-22T05:44:09.546Z,64.70
2023-08-22T05:46:38.899Z,64.70
2023-08-22T05:49:06.478Z,64.50
2023-08-22T05:51:33.175Z,64.50
2023-08-22T05:53:59.825Z,64.50
2023-08-22T05:56:26.521Z,64.50
2023-08-22T05:58:53.264Z,64.50
2023-08-22T06:01:20.211Z,64.60
2023-08-22T06:03:46.962Z,64.70
2023-08-22T06:06:13.617Z,64.80
2023-08-22T06:08:40.247Z,65.00
2023-08-22T06:11:07.401Z,65.10
2023-08-22T06:13:34.025Z,65.30
2023-08-22T06:16:00.698Z,65.40
2023-08-22T06:18:27.411Z,65.50
2023-08-22T06:20:59.311Z,65.70
2023-08-22T06:23:26.652Z,66.20
2023-08-22T06:25:53.356Z,65.90
2023-08-22T06:28:20.024Z,66.20
2023-08-22T06:30:46.704Z,66.40
2023-08-22T06:33:13.665Z,66.60
2023-08-22T06:35:47.070Z,66.80
2023-08-22T06:38:13.888Z,67.20
2023-08-22T06:40:42.750Z,67.20
2023-08-22T06:43:10.202Z,67.30
2023-08-22T06:45:37.765Z,67.50
2023-08-22T06:48:04.873Z,67.80
2023-08-22T06:50:31.490Z,67.70
2023-08-22T06:52:58.324Z,68.00
2023-08-22T06:55:25.226Z,67.70
2023-08-22T06:57:51.985Z,67.60
2023-08-22T07:00:19.162Z,67.40
2023-08-22T07:02:47.248Z,67.60
2023-08-22T07:05:15.979Z,67.10
2023-08-22T07:07:43.421Z,66.70
2023-08-22T07:10:11.972Z,66.30
2023-08-22T07:12:39.568Z,66.10
2023-08-22T07:15:07.322Z,66.30
2023-08-22T07:17:36.558Z,66.50
2023-08-22T07:20:04.465Z,66.30
2023-08-22T07:22:31.117Z,66.20
2023-08-22T07:24:57.775Z,65.80
2023-08-22T07:27:24.483Z,65.70
2023-08-22T07:29:51.374Z,65.50
2023-08-22T07:32:21.810Z,65.20
2023-08-22T07:34:49.304Z,65.00
2023-08-22T07:37:16.505Z,64.40
2023-08-22T07:39:43.563Z,64.30
2023-08-22T07:42:10.226Z,64.10
2023-08-22T07:44:36.835Z,64.00
2023-08-22T07:47:03.505Z,64.00
2023-08-22T07:49:30.302Z,64.10
2023-08-22T07:51:57.062Z,64.10
2023-08-22T07:54:23.670Z,63.80
2023-08-22T07:56:51.997Z,63.60
2023-08-22T07:59:21.361Z,63.40
2023-08-22T08:01:48.060Z,63.30
2023-08-22T08:04:14.706Z,62.70
2023-08-22T08:06:42.282Z,62.10
2023-08-22T08:09:12.141Z,61.70
2023-08-22T08:11:45.440Z,61.90
2023-08-22T08:14:12.313Z,62.00
2023-08-22T08:16:41.232Z,61.30
2023-08-22T08:19:08.116Z,61.10
2023-08-22T08:21:35.314Z,60.50
2023-08-22T08:24:05.506Z,60.10
2023-08-22T08:26:32.115Z,60.10
2023-08-22T08:28:58.740Z,59.60
2023-08-22T08:31:25.575Z,59.10
2023-08-22T08:33:52.200Z,58.30
2023-08-22T08:36:19.001Z,58.30
2023-08-22T08:38:45.886Z,57.50
2023-08-22T08:41:13.595Z,57.10
2023-08-22T08:43:40.954Z,56.80
2023-08-22T08:46:07.934Z,56.60
2023-08-22T08:48:36.884Z,56.30
2023-08-22T08:51:05.368Z,56.40
2023-08-22T08:53:34.921Z,56.20
2023-08-22T08:56:01.657Z,55.80
2023-08-22T08:58:28.766Z,55.70
2023-08-22T09:00:57.053Z,55.50
2023-08-22T09:03:25.791Z,55.40
2023-08-22T09:05:52.873Z,55.90
2023-08-22T09:08:21.018Z,55.80
2023-08-22T09:10:52.133Z,55.30
2023-08-22T09:13:33.188Z,55.20
2023-08-22T09:16:08.958Z,54.80
2023-08-22T09:18:43.129Z,54.50
2023-08-22T09:21:11.424Z,54.40
2023-08-22T09:23:43.111Z,54.10
2023-08-22T09:26:11.998Z,53.80
2023-08-22T09:28:41.878Z,54.20
2023-08-22T09:31:10.076Z,54.20
2023-08-22T09:33:46.958Z,53.80
2023-08-22T09:36:13.873Z,53.40
2023-08-22T09:38:57.656Z,53.60
2023-08-22T09:41:30.034Z,53.20
2023-08-22T09:43:59.819Z,53.50
2023-08-22T09:46:27.643Z,53.40
2023-08-22T09:48:58.258Z,53.20
2023-08-22T09:51:25.704Z,53.30
2023-08-22T09:54:00.693Z,53.10
2023-08-22T09:56:27.828Z,53.20
2023-08-22T09:58:54.709Z,53.00
2023-08-22T10:01:25.785Z,52.80
2023-08-22T10:03:55.285Z,53.10
2023-08-22T10:06:42.315Z,52.50
2023-08-22T10:09:16.898Z,52.30
2023-08-22T10:11:49.964Z,52.30
2023-08-22T10:14:30.903Z,52.40
2023-08-22T10:16:59.078Z,51.60
2023-08-22T10:19:29.681Z,51.90
2023-08-22T10:22:10.589Z,51.60
2023-08-22T10:24:37.313Z,51.60
2023-08-22T10:27:10.581Z,51.50
2023-08-22T10:29:42.443Z,51.40
2023-08-22T10:32:09.043Z,51.20
2023-08-22T10:34:35.615Z,50.70
2023-08-22T10:37:14.757Z,50.80
2023-08-22T10:39:49.546Z,50.40
2023-08-22T10:42:21.549Z,50.50
2023-08-22T10:44:54.542Z,50.40
2023-08-22T10:47:23.315Z,50.10
2023-08-22T10:52:38.829Z,50.30
2023-08-22T10:55:13.954Z,50.80
2023-08-22T10:57:55.649Z,50.40
2023-08-22T11:00:23.892Z,50.40
2023-08-22T11:03:00.672Z,50.70
2023-08-22T11:05:31.146Z,49.20
2023-08-22T11:07:57.951Z,49.10
2023-08-22T11:10:26.047Z,48.90
2023-08-22T11:12:55.775Z,48.60
2023-08-22T11:15:22.542Z,48.00
2023-08-22T11:17:51.727Z,48.50
2023-08-22T11:20:24.239Z,48.00
2023-08-22T11:22:50.954Z,48.30
2023-08-22T11:25:27.152Z,49.10
2023-08-22T11:27:54.494Z,47.90
2023-08-22T11:30:21.828Z,48.40
2023-08-22T11:32:49.163Z,47.80
2023-08-22T11:35:17.136Z,47.60
2023-08-22T11:37:44.708Z,47.80
2023-08-22T11:40:16.073Z,47.40
2023-08-22T11:42:48.641Z,47.80
2023-08-22T11:45:18.536Z,47.30
2023-08-22T11:47:50.498Z,46.80
2023-08-22T11:50:20.800Z,45.60
2023-08-22T11:52:52.606Z,45.80
2023-08-22T11:55:27.595Z,45.90
2023-08-22T11:58:02.054Z,44.90
2023-08-22T12:00:31.700Z,45.80
2023-08-22T12:03:00.862Z,46.20
2023-08-22T12:05:38.502Z,46.30
2023-08-22T12:08:08.116Z,46.20
2023-08-22T12:10:54.524Z,46.30
2023-08-22T12:13:23.555Z,46.60
2023-08-22T12:15:51.671Z,46.80
2023-08-22T12:18:19.097Z,47.10
2023-08-22T12:20:49.643Z,46.60
2023-08-22T12:23:16.370Z,46.50
2023-08-22T12:25:44.421Z,46.90
2023-08-22T12:28:11.688Z,46.60
2023-08-22T12:30:39.658Z,46.30
2023-08-22T12:33:08.896Z,45.80
2023-08-22T12:35:37.677Z,45.60
2023-08-22T12:38:04.811Z,46.10
2023-08-22T12:40:31.745Z,45.40
2023-08-22T12:43:00.268Z,45.00
2023-08-22T12:45:27.635Z,45.10
2023-08-22T12:47:54.302Z,45.30
2023-08-22T12:50:21.071Z,45.10
2023-08-22T12:52:50.323Z,44.20
2023-08-22T12:55:18.497Z,43.60
2023-08-22T12:57:45.570Z,43.20
2023-08-22T13:00:12.723Z,42.40
2023-08-22T13:02:41.663Z,42.50
2023-08-22T13:05:14.572Z,41.90
2023-08-22T13:07:41.274Z,41.00
2023-08-22T13:10:08.234Z,40.60
2023-08-22T13:12:35.579Z,40.30
2023-08-22T13:15:03.783Z,40.70
2023-08-22T13:17:31.369Z,40.80
2023-08-22T13:19:58.148Z,41.20
2023-08-22T13:22:25.034Z,41.60
2023-08-22T13:24:51.805Z,42.00
2023-08-22T13:27:19.596Z,42.40
2023-08-22T13:29:46.317Z,42.60
2023-08-22T13:32:13.066Z,42.60
2023-08-22T13:34:39.742Z,42.70
2023-08-22T13:37:08.680Z,43.00
2023-08-22T13:39:35.456Z,43.20
2023-08-22T13:42:02.235Z,43.50
2023-08-22T13:44:32.524Z,43.30
2023-08-22T13:47:00.482Z,42.60
2023-08-22T13:49:29.688Z,42.30
2023-08-22T13:51:56.381Z,42.40
2023-08-22T13:54:23.469Z,41.90
2023-08-22T13:56:50.672Z,42.10
2023-08-22T13:59:18.470Z,41.00
2023-08-22T14:01:47.580Z,41.20
2023-08-22T14:04:17.157Z,40.50
2023-08-22T14:06:43.853Z,39.90
2023-08-22T14:09:25.539Z,39.60
2023-08-22T14:11:53.343Z,39.40
2023-08-22T14:14:20.060Z,39.70
2023-08-22T14:16:46.694Z,39.20
2023-08-22T14:19:14.068Z,39.00
2023-08-22T14:21:47.766Z,39.00
2023-08-22T14:24:15.271Z,39.20
2023-08-22T14:26:44.681Z,38.50
2023-08-22T14:29:11.422Z,37.70
2023-08-22T14:31:38.164Z,36.30
2023-08-22T14:34:09.534Z,35.60
2023-08-22T14:36:36.449Z,34.60
2023-08-22T14:39:13.235Z,34.90
2023-08-22T14:41:41.928Z,34.70
2023-08-22T14:44:11.322Z,34.90
2023-08-22T14:46:38.158Z,36.30
2023-08-22T14:49:04.802Z,36.30
2023-08-22T14:51:31.450Z,36.00
2023-08-22T14:53:58.125Z,36.00
2023-08-22T14:56:26.725Z,35.30
2023-08-22T14:58:53.878Z,34.10
2023-08-22T15:01:20.512Z,33.50
2023-08-22T15:03:47.977Z,32.60
2023-08-22T15:06:14.609Z,32.00
2023-08-22T15:08:41.864Z,31.60
2023-08-22T15:11:09.191Z,30.30
2023-08-22T15:13:36.030Z,30.20
2023-08-22T15:16:03.062Z,30.00
2023-08-22T15:18:29.780Z,29.70
2023-08-22T15:20:58.171Z,29.30
2023-08-22T15:23:24.900Z,28.50
2023-08-22T15:25:54.591Z,28.10
2023-08-22T15:28:22.397Z,27.90
2023-08-22T15:30:49.446Z,27.80
2023-08-22T15:33:16.553Z,27.20
2023-08-22T15:35:49.896Z,26.70
2023-08-22T15:38:16.904Z,26.70
2023-08-22T15:40:48.473Z,26.20
2023-08-22T15:43:16.062Z,26.20
2023-08-22T15:45:42.800Z,26.30
2023-08-22T15:48:09.467Z,26.70
2023-08-22T15:50:36.146Z,26.70
2023-08-22T15:53:03.313Z,26.50
2023-08-22T15:55:30.711Z,26.50
2023-08-22T15:58:03.055Z,26.50
2023-08-22T16:00:32.313Z,26.40
2023-08-22T16:03:05.218Z,26.50
2023-08-22T16:05:34.449Z,26.50
2023-08-22T16:08:01.176Z,26.70
2023-08-22T16:10:35.262Z,27.10
2023-08-22T16:13:02.976Z,27.20
2023-08-22T16:15:30.736Z,27.50
2023-08-22T16:17:58.525Z,27.80
2023-08-22T16:20:27.153Z,28.30
2023-08-22T16:22:55.144Z,28.40
2023-08-22T16:25:24.456Z,28.70
2023-08-22T16:27:54.820Z,28.40
2023-08-22T16:30:22.669Z,28.40
2023-08-22T16:32:49.595Z,28.60
2023-08-22T16:35:18.433Z,28.40
2023-08-22T16:37:54.807Z,28.00
2023-08-22T16:40:25.935Z,27.90
2023-08-22T16:42:52.546Z,27.70
2023-08-22T16:45:22.251Z,27.30
2023-08-22T16:47:51.569Z,26.60
2023-08-22T16:50:20.455Z,26.50
2023-08-22T16:52:58.170Z,26.40
2023-08-22T16:55:30.334Z,27.10
2023-08-22T16:57:56.980Z,26.60
2023-08-22T17:00:26.081Z,26.30
2023-08-22T17:02:53.755Z,26.50
2023-08-22T17:05:20.418Z,26.20
2023-08-22T17:07:47.256Z,25.90
2023-08-22T17:10:16.243Z,25.60
2023-08-22T17:12:42.956Z,25.40
2023-08-22T17:15:12.656Z,25.50
2023-08-22T17:17:46.614Z,25.40
2023-08-22T17:20:14.593Z,25.30
2023-08-22T17:22:43.868Z,25.40
2023-08-22T17:25:12.811Z,25.30
2023-08-22T17:27:41.674Z,25.50
2023-08-22T17:30:10.982Z,25.60
2023-08-22T17:32:37.647Z,26.60
2023-08-22T17:35:09.885Z,25.90
2023-08-22T17:37:37.937Z,25.90
2023-08-22T17:40:08.509Z,26.70
2023-08-22T17:42:35.858Z,26.00
2023-08-22T17:45:10.624Z,26.80
2023-08-22T17:47:38.547Z,27.30
2023-08-22T17:50:08.049Z,27.00
2023-08-22T17:52:37.601Z,27.80
2023-08-22T17:55:04.581Z,28.40
2023-08-22T17:57:31.184Z,28.10
2023-08-22T17:59:59.084Z,28.50
2023-08-22T18:02:25.860Z,28.80
2023-08-22T18:05:00.009Z,28.40
2023-08-22T18:07:27.939Z,28.90
2023-08-22T18:09:59.053Z,29.50
2023-08-22T18:12:25.814Z,29.90
2023-08-22T18:14:57.509Z,29.10
2023-08-22T18:17:24.128Z,30.00
2023-08-22T18:19:53.816Z,29.60
2023-08-22T18:22:20.472Z,30.60
2023-08-22T18:24:50.803Z,31.50
2023-08-22T18:27:20.902Z,32.30
2023-08-22T18:29:47.607Z,33.20
2023-08-22T18:32:14.216Z,33.90
2023-08-22T18:34:41.617Z,34.60
2023-08-22T18:37:11.249Z,35.20
2023-08-22T18:39:40.819Z,35.60
2023-08-22T18:42:09.879Z,36.20
2023-08-22T18:44:39.386Z,36.70
2023-08-22T18:47:06.055Z,37.30
2023-08-22T18:49:32.931Z,38.00
2023-08-22T18:51:59.601Z,38.90
2023-08-22T18:54:28.530Z,39.60
2023-08-22T18:56:55.134Z,40.40
2023-08-22T18:59:21.705Z,40.80
2023-08-22T19:01:50.589Z,41.40
2023-08-22T19:04:17.275Z,41.90
2023-08-22T19:06:46.761Z,42.30
2023-08-22T19:09:13.426Z,42.70
2023-08-22T19:11:42.591Z,42.90
2023-08-22T19:14:09.326Z,43.10
2023-08-22T19:16:36.948Z,43.50
2023-08-22T19:19:03.653Z,44.00
2023-08-22T19:21:30.306Z,44.30
2023-08-22T19:23:56.926Z,44.70
2023-08-22T19:26:31.312Z,45.00
2023-08-22T19:29:00.129Z,45.30
2023-08-22T19:31:32.257Z,45.50
2023-08-22T19:33:59.164Z,45.80
2023-08-22T19:36:29.544Z,44.30
2023-08-22T19:38:58.829Z,45.60
2023-08-22T19:41:30.319Z,46.00
2023-08-22T19:43:56.946Z,46.40
2023-08-22T19:46:25.818Z,46.50
2023-08-22T19:48:59.125Z,47.20
2023-08-22T19:51:29.841Z,47.30
2023-08-22T19:54:01.721Z,47.40
2023-08-22T19:56:28.645Z,47.70
2023-08-22T19:58:57.417Z,48.00
2023-08-22T20:01:26.577Z,48.20
2023-08-22T20:03:55.739Z,48.50
2023-08-22T20:06:25.263Z,48.40
2023-08-22T20:08:51.921Z,48.60
2023-08-22T20:11:18.594Z,48.80
2023-08-22T20:13:51.595Z,48.90
2023-08-22T20:16:22.540Z,49.10
2023-08-22T20:18:55.867Z,49.20
2023-08-22T20:21:22.560Z,49.40
2023-08-22T20:23:49.253Z,49.60
2023-08-22T20:26:15.936Z,49.70
2023-08-22T20:28:43.712Z,49.80
2023-08-22T20:31:12.391Z,50.00
2023-08-22T20:33:42.967Z,50.00
2023-08-22T20:36:09.779Z,50.10
2023-08-22T20:38:39.531Z,50.20
2023-08-22T20:41:08.415Z,50.30
2023-08-22T20:43:35.042Z,50.50
2023-08-22T20:46:01.933Z,50.60
2023-08-22T20:48:28.695Z,50.70
2023-08-22T20:50:58.014Z,51.00
2023-08-22T20:53:29.373Z,51.10
2023-08-22T20:55:56.252Z,51.20
2023-08-22T20:58:30.478Z,51.10
2023-08-22T21:00:57.122Z,51.50
2023-08-22T21:03:25.143Z,51.40
2023-08-22T21:05:54.805Z,52.10
2023-08-22T21:08:21.522Z,51.60
2023-08-22T21:10:49.454Z,51.60
2023-08-22T21:13:16.102Z,51.80
2023-08-22T21:15:43.495Z,51.90
2023-08-22T21:18:12.576Z,52.10
2023-08-22T21:20:39.992Z,52.10
2023-08-22T21:23:10.232Z,52.30
2023-08-22T21:25:37.756Z,52.40
2023-08-22T21:28:05.125Z,52.40
2023-08-22T21:30:41.434Z,52.60
2023-08-22T21:33:08.126Z,52.60
2023-08-22T21:35:34.814Z,52.70
2023-08-22T21:38:06.835Z,52.80
2023-08-22T21:40:33.455Z,52.90
2023-08-22T21:43:01.168Z,52.90
2023-08-22T21:45:27.829Z,53.00
2023-08-22T21:48:04.410Z,53.20
2023-08-22T21:50:31.284Z,53.50
2023-08-22T21:53:03.657Z,53.30
2023-08-22T21:55:30.323Z,53.60
2023-08-22T21:57:57.079Z,53.40
2023-08-22T22:00:26.894Z,53.70
2023-08-22T22:02:53.955Z,53.60
2023-08-22T22:05:22.691Z,53.80
2023-08-22T22:07:49.721Z,53.90
2023-08-22T22:10:18.908Z,53.90
2023-08-22T22:12:46.682Z,54.10
2023-08-22T22:15:14.017Z,54.20
2023-08-22T22:17:40.846Z,54.10
2023-08-22T22:20:08.265Z,54.10
2023-08-22T22:22:34.896Z,54.20
2023-08-22T22:25:03.982Z,54.20
2023-08-22T22:27:30.597Z,54.60
2023-08-22T22:30:00.798Z,54.50
2023-08-22T22:32:27.488Z,54.60
2023-08-22T22:34:54.123Z,54.50
2023-08-22T22:37:25.687Z,54.40
2023-08-22T22:39:59.226Z,54.50
2023-08-22T22:42:27.125Z,54.50
2023-08-22T22:44:58.262Z,55.10
2023-08-22T22:47:27.901Z,54.60
2023-08-22T22:49:54.567Z,54.70
2023-08-22T22:52:26.913Z,54.80
2023-08-22T22:54:58.096Z,54.90
2023-08-22T22:57:29.353Z,55.20
2023-08-22T22:59:55.952Z,55.10
2023-08-22T23:02:23.527Z,55.10
2023-08-22T23:04:50.148Z,55.20
2023-08-22T23:07:22.352Z,55.50
2023-08-22T23:09:58.739Z,55.80
2023-08-22T23:12:28.532Z,55.60
2023-08-22T23:14:55.139Z,55.80
2023-08-22T23:17:32.456Z,55.60
2023-08-22T23:20:01.614Z,55.70
2023-08-22T23:22:32.937Z,55.70
2023-08-22T23:25:00.944Z,55.70
2023-08-22T23:27:33.580Z,55.70
2023-08-22T23:30:01.008Z,55.80
2023-08-22T23:32:31.273Z,55.90
2023-08-22T23:35:00.113Z,56.30
2023-08-22T23:37:34.220Z,56.30
2023-08-22T23:40:19.847Z,56.40
2023-08-22T23:42:51.674Z,56.70
2023-08-22T23:45:25.464Z,56.40
2023-08-22T23:47:52.914Z,56.30
2023-08-22T23:50:22.783Z,56.40
2023-08-22T23:52:49.968Z,56.40
2023-08-22T23:55:16.822Z,56.50
2023-08-22T23:57:43.910Z,56.60
